Hauptseite
METAR-TAF:

METAR-TAF

Flughäfen :

Militärflugplatz

Tafraoui, Algerien

Breite: 35-32-33N, Länge: 000-31-56W, Höhe: 112 m

Beobachtung

Neuester Wetterbericht von vor 27 Minuten, um 08:00 UTC
Wind 4 kt aus Süd/Südost
Temperatur 9°C
Luftfeuchtigkeit 71%
Luftdruck 1021 hPa
Sichtweite: 9000 m
Leicht bewölkt in der Höhe von 4000 ft

METAR: DAOL 240800Z 16004KT 9000 FEW040 09/04 Q1021

Zeit: 09:27 (08:27 UTC)


TAF: fehlend

Wetterbeobachtungen und Prognosen von mehr als 4000 Flughäfen (METAR und TAF Bericht).

Die verfügbaren Stationen werden durch gelbe und rote Markierungen auf der Karte dargestellt.

Führen Sie die Maus auf sie, um den Namen der Station zu sehen.

Darauf klicken, um die Beobachtung von Wetterbeobachtungen und Prognosen zu sehen.

Um die Karte zu ändern : klicken Sie auf den grünen Tasten mit einem schwarzen Kreuz Zum Vergrößern, auf den grünen Button mit einem Gedankenstrich zu verkleinern, oder auf die grünen Pfeile für benachbarte Karten.


METAR-TAF: